createdAt,value
2022-07-25T00:01:44.026Z,20.40
2022-07-25T00:04:12.456Z,20.30
2022-07-25T00:06:40.204Z,20.30
2022-07-25T00:09:07.460Z,20.30
2022-07-25T00:11:34.243Z,20.20
2022-07-25T00:14:00.881Z,20.20
2022-07-25T00:16:28.085Z,20.10
2022-07-25T00:18:55.155Z,19.50
2022-07-25T00:21:21.812Z,20.10
2022-07-25T00:23:48.418Z,20.10
2022-07-25T00:26:15.093Z,20.10
2022-07-25T00:28:41.795Z,20.00
2022-07-25T00:31:08.585Z,20.00
2022-07-25T00:33:35.507Z,20.00
2022-07-25T00:36:02.153Z,20.00
2022-07-25T00:38:28.742Z,19.90
2022-07-25T00:40:55.939Z,19.90
2022-07-25T00:43:23.023Z,19.90
2022-07-25T00:45:49.665Z,19.90
2022-07-25T00:48:16.295Z,19.80
2022-07-25T00:50:43.034Z,19.80
2022-07-25T00:53:09.660Z,19.80
2022-07-25T00:55:36.893Z,19.90
2022-07-25T00:58:03.579Z,19.80
2022-07-25T01:00:30.262Z,19.80
2022-07-25T01:02:57.613Z,19.80
2022-07-25T01:05:24.428Z,19.70
2022-07-25T01:07:51.950Z,19.70
2022-07-25T01:10:18.635Z,19.70
2022-07-25T01:12:53.359Z,19.60
2022-07-25T01:15:21.603Z,19.60
2022-07-25T01:17:48.451Z,19.60
2022-07-25T01:20:23.706Z,19.60
2022-07-25T01:22:51.356Z,19.50
2022-07-25T01:25:19.401Z,19.40
2022-07-25T01:27:51.246Z,19.40
2022-07-25T01:30:22.565Z,19.40
2022-07-25T01:32:49.222Z,19.50
2022-07-25T01:35:15.893Z,19.30
2022-07-25T01:37:45.881Z,19.40
2022-07-25T01:40:13.665Z,19.30
2022-07-25T01:42:40.415Z,19.30
2022-07-25T01:45:07.755Z,19.30
2022-07-25T01:47:34.363Z,19.20
2022-07-25T01:50:01.138Z,19.20
2022-07-25T01:52:27.777Z,19.20
2022-07-25T01:54:54.393Z,19.30
2022-07-25T01:57:21.397Z,19.20
2022-07-25T01:59:49.516Z,19.20
2022-07-25T02:02:16.111Z,19.20
2022-07-25T02:04:42.796Z,19.20
2022-07-25T02:07:09.397Z,19.20
2022-07-25T02:09:36.010Z,19.30
2022-07-25T02:12:02.631Z,19.20
2022-07-25T02:14:29.299Z,19.20
2022-07-25T02:16:56.080Z,19.20
2022-07-25T02:19:22.736Z,19.10
2022-07-25T02:21:49.374Z,19.20
2022-07-25T02:24:15.951Z,19.10
2022-07-25T02:26:42.556Z,19.10
2022-07-25T02:29:09.208Z,19.10
2022-07-25T02:31:35.785Z,19.10
2022-07-25T02:34:02.574Z,19.10
2022-07-25T02:36:29.574Z,19.10
2022-07-25T02:38:56.162Z,19.10
2022-07-25T02:41:22.742Z,19.00
2022-07-25T02:43:49.370Z,19.00
2022-07-25T02:46:15.996Z,19.00
2022-07-25T02:48:42.761Z,19.00
2022-07-25T02:51:09.383Z,19.00
2022-07-25T02:53:56.081Z,19.10
2022-07-25T02:56:22.481Z,19.10
2022-07-25T02:58:50.232Z,19.00
2022-07-25T03:01:16.939Z,19.00
2022-07-25T03:03:43.647Z,19.00
2022-07-25T03:06:10.352Z,19.00
2022-07-25T03:08:36.996Z,19.00
2022-07-25T03:11:03.748Z,19.00
2022-07-25T03:13:31.122Z,19.00
2022-07-25T03:15:57.687Z,19.00
2022-07-25T03:18:24.299Z,19.00
2022-07-25T03:20:50.878Z,19.00
2022-07-25T03:23:17.436Z,19.00
2022-07-25T03:25:44.002Z,19.00
2022-07-25T03:28:10.555Z,19.00
2022-07-25T03:30:37.306Z,18.90
2022-07-25T03:33:04.031Z,18.90
2022-07-25T03:35:30.632Z,19.00
2022-07-25T03:37:57.244Z,18.90
2022-07-25T03:40:23.875Z,18.90
2022-07-25T03:42:50.539Z,18.90
2022-07-25T03:45:17.847Z,18.90
2022-07-25T03:47:44.567Z,18.90
2022-07-25T03:50:11.713Z,18.80
2022-07-25T03:52:38.458Z,18.90
2022-07-25T03:55:10.050Z,18.80
2022-07-25T03:57:37.311Z,18.80
2022-07-25T04:00:06.153Z,18.80
2022-07-25T04:02:33.158Z,18.80
2022-07-25T04:04:59.904Z,18.80
2022-07-25T04:07:26.855Z,18.80
2022-07-25T04:09:53.442Z,18.80
2022-07-25T04:12:20.062Z,18.80
2022-07-25T04:14:46.694Z,18.90
2022-07-25T04:17:13.356Z,19.00
2022-07-25T04:19:40.074Z,18.90
2022-07-25T04:22:06.971Z,18.80
2022-07-25T04:24:33.537Z,19.10
2022-07-25T04:27:00.109Z,19.10
2022-07-25T04:29:26.695Z,19.20
2022-07-25T04:31:53.318Z,19.30
2022-07-25T04:34:20.363Z,19.30
2022-07-25T04:36:46.968Z,19.50
2022-07-25T04:39:13.575Z,19.70
2022-07-25T04:41:40.265Z,19.90
2022-07-25T04:44:08.356Z,20.00
2022-07-25T04:46:35.468Z,20.10
2022-07-25T04:49:02.174Z,20.30
2022-07-25T04:51:29.271Z,20.40
2022-07-25T04:53:55.840Z,20.60
2022-07-25T04:56:22.599Z,20.80
2022-07-25T04:58:49.458Z,21.00
2022-07-25T05:01:16.195Z,21.20
2022-07-25T05:03:49.876Z,21.40
2022-07-25T05:06:17.266Z,21.50
2022-07-25T05:08:43.822Z,21.70
2022-07-25T05:11:10.382Z,23.50
2022-07-25T05:13:36.961Z,22.00
2022-07-25T05:16:04.044Z,22.20
2022-07-25T05:18:30.936Z,22.40
2022-07-25T05:20:57.510Z,22.50
2022-07-25T05:23:24.120Z,22.70
2022-07-25T05:25:51.201Z,22.80
2022-07-25T05:28:17.950Z,22.90
2022-07-25T05:30:44.583Z,23.10
2022-07-25T05:33:11.165Z,23.30
2022-07-25T05:35:37.796Z,23.40
2022-07-25T05:38:04.666Z,23.50
2022-07-25T05:40:31.249Z,23.70
2022-07-25T05:43:02.582Z,23.80
2022-07-25T05:45:30.143Z,23.90
2022-07-25T05:47:56.778Z,24.10
2022-07-25T05:50:23.457Z,24.20
2022-07-25T05:52:50.077Z,24.30
2022-07-25T05:55:17.475Z,24.50
2022-07-25T05:57:44.218Z,24.60
2022-07-25T06:00:11.755Z,24.60
2022-07-25T06:02:38.627Z,24.70
2022-07-25T06:05:05.741Z,24.80
2022-07-25T06:07:32.341Z,25.00
2022-07-25T06:09:58.964Z,25.10
2022-07-25T06:12:25.558Z,25.20
2022-07-25T06:14:52.462Z,25.20
2022-07-25T06:17:19.134Z,25.40
2022-07-25T06:19:45.718Z,25.50
2022-07-25T06:22:13.716Z,24.50
2022-07-25T06:24:41.446Z,26.10
2022-07-25T06:27:08.700Z,25.70
2022-07-25T06:29:35.321Z,25.80
2022-07-25T06:32:02.179Z,25.80
2022-07-25T06:34:29.062Z,25.90
2022-07-25T06:36:57.447Z,26.00
2022-07-25T06:39:24.891Z,26.10
2022-07-25T06:41:51.812Z,26.30
2022-07-25T06:44:18.383Z,26.40
2022-07-25T06:46:45.098Z,26.60
2022-07-25T06:49:11.781Z,26.70
2022-07-25T06:51:38.386Z,26.90
2022-07-25T06:54:05.241Z,27.00
2022-07-25T06:56:32.928Z,27.20
2022-07-25T06:58:59.901Z,27.30
2022-07-25T07:01:26.812Z,27.40
2022-07-25T07:03:53.723Z,27.40
2022-07-25T07:06:20.465Z,27.50
2022-07-25T07:08:47.062Z,27.50
2022-07-25T07:11:15.244Z,27.50
2022-07-25T07:13:42.104Z,27.50
2022-07-25T07:16:09.200Z,27.60
2022-07-25T07:18:36.815Z,27.60
2022-07-25T07:21:04.615Z,27.70
2022-07-25T07:23:31.355Z,27.70
2022-07-25T07:25:59.923Z,27.80
2022-07-25T07:28:26.612Z,27.80
2022-07-25T07:33:39.922Z,27.90
2022-07-25T07:36:06.791Z,27.90
2022-07-25T07:38:33.362Z,28.00
2022-07-25T07:40:59.959Z,28.00
2022-07-25T07:43:29.935Z,28.00
2022-07-25T07:46:00.468Z,28.20
2022-07-25T07:48:28.605Z,28.30
2022-07-25T07:50:55.311Z,28.40
2022-07-25T07:53:21.967Z,28.60
2022-07-25T07:55:54.980Z,28.70
2022-07-25T07:58:21.737Z,28.80
2022-07-25T08:00:51.910Z,28.90
2022-07-25T08:03:20.964Z,29.00
2022-07-25T08:05:48.860Z,29.00
2022-07-25T08:08:16.494Z,29.10
2022-07-25T08:10:45.838Z,29.20
2022-07-25T08:13:15.204Z,29.20
2022-07-25T08:15:43.158Z,29.20
2022-07-25T08:18:16.780Z,29.30
2022-07-25T08:20:45.218Z,29.30
2022-07-25T08:23:12.164Z,29.40
2022-07-25T08:25:39.364Z,29.40
2022-07-25T08:28:06.470Z,29.50
2022-07-25T08:30:37.964Z,29.50
2022-07-25T08:33:07.534Z,29.50
2022-07-25T08:35:35.443Z,29.60
2022-07-25T08:38:04.792Z,29.70
2022-07-25T08:40:32.886Z,29.70
2022-07-25T08:43:00.202Z,29.80
2022-07-25T08:45:28.554Z,29.90
2022-07-25T08:47:55.964Z,30.00
2022-07-25T08:50:25.743Z,30.10
2022-07-25T08:53:04.637Z,30.20
2022-07-25T08:55:39.573Z,30.30
2022-07-25T08:58:06.199Z,30.50
2022-07-25T09:00:33.330Z,30.50
2022-07-25T09:03:01.760Z,30.60
2022-07-25T09:05:30.328Z,30.60
2022-07-25T09:07:58.283Z,30.70
2022-07-25T09:10:27.850Z,30.80
2022-07-25T09:13:02.871Z,30.90
2022-07-25T09:15:34.575Z,31.00
2022-07-25T09:18:13.151Z,31.00
2022-07-25T09:20:48.576Z,31.00
2022-07-25T09:23:32.505Z,31.10
2022-07-25T09:26:06.385Z,31.20
2022-07-25T09:28:49.759Z,31.20
2022-07-25T09:31:18.921Z,31.30
2022-07-25T09:33:56.343Z,31.50
2022-07-25T09:36:23.862Z,31.50
2022-07-25T09:38:57.778Z,31.50
2022-07-25T09:41:37.602Z,31.40
2022-07-25T09:44:14.783Z,31.50
2022-07-25T09:46:41.663Z,31.50
2022-07-25T09:49:09.714Z,31.50
2022-07-25T09:51:36.818Z,31.40
2022-07-25T09:54:04.444Z,31.50
2022-07-25T09:56:32.879Z,31.60
2022-07-25T09:59:01.410Z,31.60
2022-07-25T10:01:36.623Z,31.70
2022-07-25T10:04:47.048Z,31.70
2022-07-25T10:07:18.980Z,31.70
2022-07-25T10:09:50.367Z,31.60
2022-07-25T10:12:22.337Z,31.50
2022-07-25T10:15:04.295Z,31.40
2022-07-25T10:17:31.019Z,31.40
2022-07-25T10:19:58.986Z,31.30
2022-07-25T10:22:55.946Z,31.20
2022-07-25T10:25:23.715Z,31.00
2022-07-25T10:27:59.768Z,31.00
2022-07-25T10:30:36.044Z,30.90
2022-07-25T10:33:10.308Z,30.70
2022-07-25T10:35:37.552Z,30.70
2022-07-25T10:38:05.254Z,30.70
2022-07-25T10:40:37.326Z,30.60
2022-07-25T10:43:21.759Z,30.70
2022-07-25T10:45:54.149Z,30.70
2022-07-25T10:48:29.792Z,30.70
2022-07-25T10:51:02.792Z,30.80
2022-07-25T10:53:45.964Z,30.80
2022-07-25T10:56:22.390Z,30.80
2022-07-25T10:58:55.311Z,30.80
2022-07-25T11:01:22.138Z,30.90
2022-07-25T11:03:49.584Z,31.00
2022-07-25T11:06:17.298Z,31.00
2022-07-25T11:08:44.859Z,31.10
2022-07-25T11:11:12.210Z,31.10
2022-07-25T11:13:42.550Z,31.10
2022-07-25T11:16:09.862Z,31.20
2022-07-25T11:18:40.868Z,31.20
2022-07-25T11:21:09.294Z,31.20
2022-07-25T11:23:36.608Z,31.20
2022-07-25T11:26:13.499Z,31.30
2022-07-25T11:28:42.403Z,31.20
2022-07-25T11:31:09.544Z,31.30
2022-07-25T11:33:38.881Z,31.30
2022-07-25T11:36:06.544Z,31.40
2022-07-25T11:38:33.707Z,31.40
2022-07-25T11:41:01.231Z,31.40
2022-07-25T11:43:28.063Z,31.40
2022-07-25T11:46:09.356Z,31.40
2022-07-25T11:48:40.716Z,31.40
2022-07-25T11:51:19.020Z,31.40
2022-07-25T11:53:51.213Z,31.40
2022-07-25T11:56:41.907Z,31.30
2022-07-25T11:59:10.700Z,31.20
2022-07-25T12:01:42.540Z,31.10
2022-07-25T12:04:19.986Z,31.00
2022-07-25T12:06:50.906Z,31.00
2022-07-25T12:09:22.116Z,31.00
2022-07-25T12:11:49.571Z,30.90
2022-07-25T12:14:16.440Z,30.90
2022-07-25T12:16:43.208Z,30.90
2022-07-25T12:19:19.003Z,30.90
2022-07-25T12:21:46.517Z,30.90
2022-07-25T12:24:13.261Z,30.90
2022-07-25T12:26:39.993Z,30.80
2022-07-25T12:29:07.129Z,30.80
2022-07-25T12:31:34.016Z,30.80
2022-07-25T12:34:00.827Z,30.80
2022-07-25T12:36:27.564Z,30.80
2022-07-25T12:38:54.136Z,30.80
2022-07-25T12:41:22.797Z,30.80
2022-07-25T12:43:49.825Z,30.90
2022-07-25T12:46:16.836Z,30.80
2022-07-25T12:48:44.040Z,30.90
2022-07-25T12:51:10.940Z,30.90
2022-07-25T12:53:41.965Z,31.00
2022-07-25T12:56:09.459Z,30.90
2022-07-25T12:58:36.920Z,31.00
2022-07-25T13:01:05.658Z,31.00
2022-07-25T13:03:32.322Z,31.10
2022-07-25T13:05:58.930Z,31.10
2022-07-25T13:08:25.711Z,31.10
2022-07-25T13:10:52.350Z,31.10
2022-07-25T13:13:19.014Z,30.00
2022-07-25T13:15:46.432Z,31.00
2022-07-25T13:18:13.192Z,31.10
2022-07-25T13:20:39.809Z,31.10
2022-07-25T13:23:06.676Z,31.10
2022-07-25T13:25:34.273Z,31.20
2022-07-25T13:28:03.612Z,31.20
2022-07-25T13:30:37.580Z,31.10
2022-07-25T13:33:04.175Z,31.10
2022-07-25T13:35:38.115Z,31.20
2022-07-25T13:38:05.689Z,31.20
2022-07-25T13:40:32.540Z,31.20
2022-07-25T13:42:59.252Z,31.30
2022-07-25T13:45:25.941Z,31.30
2022-07-25T13:48:12.097Z,31.30
2022-07-25T13:50:39.455Z,31.30
2022-07-25T13:53:06.184Z,31.20
2022-07-25T13:55:32.915Z,31.20
2022-07-25T13:57:59.763Z,31.20
2022-07-25T14:00:26.365Z,31.20
2022-07-25T14:02:53.031Z,31.20
2022-07-25T14:05:19.689Z,31.30
2022-07-25T14:07:46.307Z,31.40
2022-07-25T14:10:13.141Z,31.30
2022-07-25T14:12:39.831Z,31.30
2022-07-25T14:15:07.054Z,31.20
2022-07-25T14:17:34.155Z,31.20
2022-07-25T14:20:00.848Z,31.20
2022-07-25T14:22:27.473Z,31.10
2022-07-25T14:24:54.035Z,31.10
2022-07-25T14:27:20.653Z,31.10
2022-07-25T14:29:47.360Z,31.00
2022-07-25T14:32:14.020Z,31.00
2022-07-25T14:34:40.673Z,30.90
2022-07-25T14:37:08.149Z,30.90
2022-07-25T14:39:35.197Z,30.80
2022-07-25T14:42:01.841Z,30.80
2022-07-25T14:44:28.910Z,30.80
2022-07-25T14:46:56.693Z,30.80
2022-07-25T14:49:23.957Z,30.70
2022-07-25T14:51:50.719Z,30.60
2022-07-25T14:54:18.313Z,30.50
2022-07-25T14:56:45.122Z,30.40
2022-07-25T14:59:12.123Z,30.40
2022-07-25T15:01:39.210Z,30.30
2022-07-25T15:04:06.349Z,30.20
2022-07-25T15:06:33.209Z,30.10
2022-07-25T15:08:59.808Z,30.10
2022-07-25T15:11:26.419Z,30.10
2022-07-25T15:13:53.141Z,30.10
2022-07-25T15:16:19.757Z,30.10
2022-07-25T15:19:13.479Z,30.10
2022-07-25T15:21:33.766Z,30.10
2022-07-25T15:24:00.369Z,30.10
2022-07-25T15:26:26.964Z,30.00
2022-07-25T15:28:53.774Z,30.00
2022-07-25T15:31:22.502Z,30.00
2022-07-25T15:33:49.151Z,30.00
2022-07-25T15:36:15.848Z,29.90
2022-07-25T15:38:44.508Z,29.90
2022-07-25T15:41:11.854Z,29.90
2022-07-25T15:43:39.158Z,29.90
2022-07-25T15:46:05.886Z,29.70
2022-07-25T15:48:33.627Z,29.60
2022-07-25T15:51:00.514Z,29.60
2022-07-25T15:53:28.375Z,29.50
2022-07-25T15:55:55.165Z,29.40
2022-07-25T15:58:21.871Z,29.30
2022-07-25T16:00:48.572Z,29.30
2022-07-25T16:03:15.457Z,29.20
2022-07-25T16:05:43.442Z,29.10
2022-07-25T16:08:10.033Z,29.10
2022-07-25T16:10:37.389Z,29.00
2022-07-25T16:13:04.698Z,29.00
2022-07-25T16:15:31.399Z,28.90
2022-07-25T16:18:02.644Z,28.80
2022-07-25T16:20:31.350Z,28.70
2022-07-25T16:22:59.109Z,28.60
2022-07-25T16:25:27.501Z,28.60
2022-07-25T16:27:54.318Z,28.50
2022-07-25T16:30:21.550Z,28.50
2022-07-25T16:32:48.438Z,28.50
2022-07-25T16:35:15.603Z,28.50
2022-07-25T16:37:42.737Z,28.40
2022-07-25T16:40:10.037Z,28.30
2022-07-25T16:42:36.854Z,28.30
2022-07-25T16:45:04.139Z,28.20
2022-07-25T16:47:30.801Z,28.20
2022-07-25T16:49:57.391Z,28.10
2022-07-25T16:52:24.026Z,28.10
2022-07-25T16:54:50.656Z,28.10
2022-07-25T16:57:17.321Z,27.90
2022-07-25T16:59:44.710Z,27.80
2022-07-25T17:02:11.443Z,27.70
2022-07-25T17:04:38.203Z,27.60
2022-07-25T17:07:04.887Z,27.50
2022-07-25T17:09:32.030Z,27.40
2022-07-25T17:11:58.607Z,27.20
2022-07-25T17:14:30.036Z,27.10
2022-07-25T17:16:57.135Z,27.00
2022-07-25T17:19:23.779Z,26.90
2022-07-25T17:21:50.357Z,26.80
2022-07-25T17:24:16.977Z,26.70
2022-07-25T17:26:43.533Z,26.60
2022-07-25T17:29:10.529Z,26.50
2022-07-25T17:31:37.404Z,26.40
2022-07-25T17:34:04.083Z,26.30
2022-07-25T17:36:30.643Z,26.30
2022-07-25T17:38:57.319Z,26.20
2022-07-25T17:41:23.912Z,26.20
2022-07-25T17:43:50.531Z,26.00
2022-07-25T17:46:17.303Z,26.00
2022-07-25T17:48:44.230Z,25.90
2022-07-25T17:51:10.945Z,26.00
2022-07-25T17:53:37.703Z,25.90
2022-07-25T17:56:04.706Z,25.90
2022-07-25T17:58:32.070Z,25.80
2022-07-25T18:01:01.398Z,25.90
2022-07-25T18:03:28.943Z,25.90
2022-07-25T18:05:56.082Z,25.90
2022-07-25T18:08:22.827Z,25.90
2022-07-25T18:10:50.264Z,25.90
2022-07-25T18:13:19.799Z,25.80
2022-07-25T18:15:46.917Z,25.80
2022-07-25T18:18:18.407Z,25.80
2022-07-25T18:20:47.239Z,25.70
2022-07-25T18:23:14.037Z,25.70
2022-07-25T18:25:40.874Z,25.70
2022-07-25T18:28:07.539Z,25.60
2022-07-25T18:30:34.146Z,25.50
2022-07-25T18:33:00.714Z,25.50
2022-07-25T18:35:27.290Z,25.50
2022-07-25T18:37:53.892Z,25.50
2022-07-25T18:40:20.801Z,25.40
2022-07-25T18:42:47.572Z,25.40
2022-07-25T18:45:14.211Z,25.30
2022-07-25T18:47:41.142Z,25.30
2022-07-25T18:50:08.220Z,25.20
2022-07-25T18:52:36.029Z,25.10
2022-07-25T18:55:04.449Z,25.00
2022-07-25T18:57:31.261Z,25.00
2022-07-25T19:00:02.587Z,25.00
2022-07-25T19:02:29.958Z,25.00
2022-07-25T19:04:56.663Z,24.90
2022-07-25T19:07:23.635Z,24.90
2022-07-25T19:09:50.412Z,24.80
2022-07-25T19:12:17.299Z,24.70
2022-07-25T19:14:44.155Z,24.60
2022-07-25T19:17:10.790Z,24.60
2022-07-25T19:19:37.506Z,24.60
2022-07-25T19:22:04.194Z,24.50
2022-07-25T19:24:31.372Z,24.50
2022-07-25T19:26:58.863Z,24.50
2022-07-25T19:29:26.717Z,24.40
2022-07-25T19:31:53.552Z,24.40
2022-07-25T19:34:20.160Z,24.30
2022-07-25T19:36:46.882Z,24.20
2022-07-25T19:39:15.430Z,24.20
2022-07-25T19:41:46.650Z,24.10
2022-07-25T19:44:14.008Z,24.10
2022-07-25T19:46:40.640Z,24.10
2022-07-25T19:49:07.821Z,24.20
2022-07-25T19:51:34.617Z,24.00
2022-07-25T19:54:03.460Z,24.00
2022-07-25T19:56:31.308Z,23.90
2022-07-25T19:58:58.129Z,22.40
2022-07-25T20:01:24.919Z,23.90
2022-07-25T20:03:51.582Z,23.80
2022-07-25T20:06:20.529Z,23.80
2022-07-25T20:08:48.151Z,23.70
2022-07-25T20:11:16.134Z,23.60
2022-07-25T20:13:42.798Z,23.60
2022-07-25T20:16:09.923Z,23.50
2022-07-25T20:18:36.656Z,23.40
2022-07-25T20:21:03.375Z,23.30
2022-07-25T20:23:30.649Z,23.30
2022-07-25T20:25:57.648Z,23.30
2022-07-25T20:28:24.287Z,23.20
2022-07-25T20:30:50.947Z,23.20
2022-07-25T20:33:18.109Z,23.20
2022-07-25T20:35:45.116Z,23.20
2022-07-25T20:38:11.693Z,23.20
2022-07-25T20:40:43.915Z,23.20
2022-07-25T20:43:15.152Z,23.20
2022-07-25T20:45:42.165Z,23.20
2022-07-25T20:48:08.877Z,23.10
2022-07-25T20:50:37.290Z,23.10
2022-07-25T20:53:04.890Z,23.10
2022-07-25T20:55:31.800Z,23.10
2022-07-25T20:57:58.866Z,23.00
2022-07-25T21:00:28.712Z,22.90
2022-07-25T21:02:55.454Z,22.80
2022-07-25T21:05:22.485Z,22.80
2022-07-25T21:07:49.271Z,22.70
2022-07-25T21:10:16.391Z,22.70
2022-07-25T21:12:45.125Z,22.70
2022-07-25T21:15:12.854Z,22.70
2022-07-25T21:17:39.600Z,22.70
2022-07-25T21:20:06.804Z,22.70
2022-07-25T21:22:34.089Z,22.70
2022-07-25T21:25:01.455Z,22.60
2022-07-25T21:27:28.329Z,22.60
2022-07-25T21:29:55.045Z,22.50
2022-07-25T21:32:22.024Z,22.50
2022-07-25T21:34:49.775Z,22.50
2022-07-25T21:37:16.563Z,22.40
2022-07-25T21:39:43.814Z,22.40
2022-07-25T21:42:10.949Z,22.40
2022-07-25T21:44:41.322Z,22.30
2022-07-25T21:47:08.950Z,22.30
2022-07-25T21:49:54.563Z,22.30
2022-07-25T21:52:30.106Z,22.30
2022-07-25T21:55:02.610Z,22.30
2022-07-25T21:57:29.294Z,22.30
2022-07-25T21:59:56.034Z,22.30
2022-07-25T22:02:23.413Z,22.20
2022-07-25T22:04:50.389Z,22.20
2022-07-25T22:07:17.618Z,22.20
2022-07-25T22:09:44.830Z,22.10
2022-07-25T22:12:11.590Z,22.10
2022-07-25T22:14:38.199Z,22.00
2022-07-25T22:17:05.590Z,21.90
2022-07-25T22:19:32.483Z,21.80
2022-07-25T22:21:59.122Z,21.80
2022-07-25T22:24:25.788Z,21.70
2022-07-25T22:26:52.503Z,21.60
2022-07-25T22:29:19.115Z,21.60
2022-07-25T22:31:45.799Z,21.50
2022-07-25T22:34:12.450Z,21.50
2022-07-25T22:36:39.135Z,21.40
2022-07-25T22:39:06.205Z,21.30
2022-07-25T22:41:33.013Z,21.30
2022-07-25T22:44:00.155Z,21.30
2022-07-25T22:46:28.797Z,21.30
2022-07-25T22:48:56.288Z,21.30
2022-07-25T22:51:23.614Z,21.30
2022-07-25T22:53:50.567Z,21.30
2022-07-25T22:56:17.404Z,23.00
2022-07-25T22:58:45.070Z,21.20
2022-07-25T23:01:16.358Z,21.20
2022-07-25T23:03:42.965Z,21.20
2022-07-25T23:06:09.929Z,21.20
2022-07-25T23:08:36.481Z,21.10
2022-07-25T23:11:03.587Z,21.20
2022-07-25T23:13:30.263Z,21.20
2022-07-25T23:15:56.946Z,21.20
2022-07-25T23:18:23.786Z,21.20
2022-07-25T23:20:50.379Z,21.20
2022-07-25T23:23:17.008Z,21.20
2022-07-25T23:25:43.626Z,21.20
2022-07-25T23:28:10.205Z,21.20
2022-07-25T23:30:40.450Z,21.10
2022-07-25T23:33:07.949Z,21.10
2022-07-25T23:35:35.258Z,21.10
2022-07-25T23:38:01.957Z,21.10
2022-07-25T23:40:28.534Z,21.10
2022-07-25T23:42:55.183Z,21.10
2022-07-25T23:45:24.980Z,21.10
2022-07-25T23:47:54.885Z,21.10
2022-07-25T23:50:22.587Z,21.10
2022-07-25T23:52:49.186Z,21.00
2022-07-25T23:55:15.876Z,21.00
2022-07-25T23:57:43.055Z,21.00
